Hanamaulu, HI

12:14 PM HST on July 11, 2014 (GMT -1000)
Lihue (PHLI) Elev 102 ft | 21.98 °N, 159.34 °W | Change Station

Current weather conditions updated 21 minutes ago

Clear
Clear
83 °F
Feels Like 86 °F
N
15
Wind Variable Wind from NE

Today is forecast to be nearly the same temperature as yesterday.

Today
High -- | Low -- °F
--% Chance of Precip.
Yesterday
High -- | Low -- °F
Precip. -- in
6:01 AM 7:24 PM
Full, 100% visible
Pressure 30.05 in
Visibility 10.0 miles
Clouds Clear
Heat Index 86 °F
Dew Point 68 °F
Humidity 60%
Rainfall 0.00 in
Snow Depth Not available.
UV 12 out of 12
Pollen Not available.
Air Quality Not available.
Flu Activity Sporadic
METAR PHLI 112153Z 05013KT 10SM CLR 28/20 A3005 RMK AO2 SLP174 T02830200

More Conditions Fewer Conditions

Pressure 30.05 in
Visibility 10.0 miles
Clouds Clear
Heat Index 86 °F
Dew Point 68 °F
Humidity 60%
Rainfall 0.00 in
Snow Depth Not available.
UV 12 out of 12
Pollen Not available.
Air Quality Not available.
Flu Activity Sporadic
METAR PHLI 112153Z 05013KT 10SM CLR 28/20 A3005 RMK AO2 SLP174 T02830200

More Conditions Fewer Conditions

10-Day Weather Forecast

Almanac

Astronomy

Jul. 11, 2014 Rise Set
Actual Time 6:01 AM HST 7:24 PM HST
Civil Twilight 5:36 AM HST 7:49 PM HST
Nautical Twilight 5:07 AM HST 8:18 PM HST
Astronomical Twilight 4:36 AM HST 8:48 PM HST
Moon 6:54 PM HST 5:18 AM HST
Length of Visible Light 14h 12m
Length of Day
13h 23m
Tomorrow will be 0m 32s shorter.
Full, 100% of the Moon is Illuminated
Today
Full
Jul 12
Full
Jul 18
Last Quarter
Jul 26
New
Aug 3
First Quarter

Today's Extremes

State Highs State Lows

Community

WunderPhotos

Upload Photos

1,732,574 photos uploaded!

WunderBlogs® & News

Nearby

Snow Depth

Station Depth Elevation
No new snow has been reported.

Earthquake Activity

City Distance Mag. Time & Date
No recent earthquake activity has been reported nearby.
Minimum magnitude displayed is 2.5.

Coastal Water Temperatures

Place Temperature
No Stations Reporting

Nearby Weather Stations

Station Location Temp. Heat Index Dew Point Humidity Wind Precip. Elev Updated Type
Lihue, Lihue, HI 82.3 °F 87 °F 71 °F 69% East  at  4.0 mph 0.00 in / hr 342 ft 12:12 PM HST Normal
Wailua, Kapaa, HI 83.3 °F 88 °F 71 °F 66% NE  at  6.9 mph 0.00 in / hr 355 ft 12:14 PM HST Rapid Fire
Koloa Landing - Whaler's Cove, Koloa, HI 83.8 °F 86 °F 66 °F 54% NE  at  4.3 mph 0.00 in / hr 25 ft 12:14 PM HST Rapid Fire
Kalihiwai Ridge, Kilauea, HI 82.0 °F 86 °F 71 °F 70% East  at  4.0 mph 0.00 in / hr 300 ft 12:14 PM HST Rapid Fire
Pooku, Princeville, HI 80.6 °F 84 °F 71 °F 72% ENE  at  1.0 mph 0.00 in / hr 480 ft 12:13 PM HST Rapid Fire
Na Pali Properties on Kauai, Hanalei, HI 84.2 °F 86 °F 65 °F 53% NE  at  3.1 mph 0.00 in / hr 36 ft 12:14 PM HST Rapid Fire
North Shore of Kauai, Princeville, HI 80.7 °F 83 °F 67 °F 64% ENE  at  8.7 mph 0.00 in / hr 200 ft 12:14 PM HST Rapid Fire

Show More Stations Show Fewer Stations